sensor_id;sensor_type;location;lat;lon;timestamp;P1;durP1;ratioP1;P2;durP2;ratioP2
45208;SDS011;30951;43.994;26.260;2023-12-20T00:02:21;36.88;;;17.83;;
45208;SDS011;30951;43.994;26.260;2023-12-20T00:04:47;32.78;;;18.13;;
45208;SDS011;30951;43.994;26.260;2023-12-20T00:07:13;37.33;;;18.50;;
45208;SDS011;30951;43.994;26.260;2023-12-20T00:09:38;39.13;;;18.35;;
45208;SDS011;30951;43.994;26.260;2023-12-20T00:12:04;34.30;;;16.60;;
45208;SDS011;30951;43.994;26.260;2023-12-20T00:14:30;33.03;;;18.38;;
45208;SDS011;30951;43.994;26.260;2023-12-20T00:16:55;40.28;;;18.90;;
45208;SDS011;30951;43.994;26.260;2023-12-20T00:19:21;36.85;;;17.98;;
45208;SDS011;30951;43.994;26.260;2023-12-20T00:21:47;43.10;;;17.50;;
45208;SDS011;30951;43.994;26.260;2023-12-20T00:24:12;40.17;;;18.85;;
45208;SDS011;30951;43.994;26.260;2023-12-20T00:26:38;549.15;;;37.75;;
45208;SDS011;30951;43.994;26.260;2023-12-20T00:29:03;536.38;;;36.88;;
45208;SDS011;30951;43.994;26.260;2023-12-20T00:31:29;329.27;;;26.45;;
45208;SDS011;30951;43.994;26.260;2023-12-20T00:33:55;127.32;;;18.13;;
45208;SDS011;30951;43.994;26.260;2023-12-20T00:36:21;38.25;;;17.75;;
45208;SDS011;30951;43.994;26.260;2023-12-20T00:38:47;215.93;;;23.70;;
45208;SDS011;30951;43.994;26.260;2023-12-20T00:41:13;177.25;;;23.98;;
45208;SDS011;30951;43.994;26.260;2023-12-20T00:43:38;261.63;;;26.55;;
45208;SDS011;30951;43.994;26.260;2023-12-20T00:46:04;37.08;;;16.52;;
45208;SDS011;30951;43.994;26.260;2023-12-20T00:48:29;79.82;;;16.83;;
45208;SDS011;30951;43.994;26.260;2023-12-20T00:50:57;475.75;;;29.52;;
45208;SDS011;30951;43.994;26.260;2023-12-20T00:53:23;65.75;;;15.82;;
45208;SDS011;30951;43.994;26.260;2023-12-20T00:55:48;203.23;;;21.13;;
45208;SDS011;30951;43.994;26.260;2023-12-20T00:58:15;226.80;;;20.98;;
45208;SDS011;30951;43.994;26.260;2023-12-20T01:00:40;261.30;;;20.63;;
45208;SDS011;30951;43.994;26.260;2023-12-20T01:03:08;22.10;;;10.90;;
45208;SDS011;30951;43.994;26.260;2023-12-20T01:05:33;24.77;;;12.18;;
45208;SDS011;30951;43.994;26.260;2023-12-20T01:07:59;26.52;;;13.32;;
45208;SDS011;30951;43.994;26.260;2023-12-20T01:10:25;25.90;;;13.82;;
45208;SDS011;30951;43.994;26.260;2023-12-20T01:12:53;24.95;;;13.43;;
45208;SDS011;30951;43.994;26.260;2023-12-20T01:15:18;24.52;;;12.52;;
45208;SDS011;30951;43.994;26.260;2023-12-20T01:17:44;25.65;;;14.55;;
45208;SDS011;30951;43.994;26.260;2023-12-20T01:20:09;25.13;;;13.82;;
45208;SDS011;30951;43.994;26.260;2023-12-20T01:22:35;29.42;;;14.85;;
45208;SDS011;30951;43.994;26.260;2023-12-20T01:25:02;21.00;;;11.75;;
45208;SDS011;30951;43.994;26.260;2023-12-20T01:27:27;21.55;;;11.43;;
45208;SDS011;30951;43.994;26.260;2023-12-20T01:29:53;21.98;;;12.07;;
45208;SDS011;30951;43.994;26.260;2023-12-20T01:32:19;23.83;;;11.60;;
45208;SDS011;30951;43.994;26.260;2023-12-20T01:34:45;21.42;;;10.85;;
45208;SDS011;30951;43.994;26.260;2023-12-20T01:37:11;29.02;;;11.93;;
45208;SDS011;30951;43.994;26.260;2023-12-20T01:39:37;23.88;;;11.30;;
45208;SDS011;30951;43.994;26.260;2023-12-20T01:42:02;23.17;;;11.88;;
45208;SDS011;30951;43.994;26.260;2023-12-20T01:44:28;61.00;;;21.58;;
45208;SDS011;30951;43.994;26.260;2023-12-20T01:46:54;46.10;;;20.02;;
45208;SDS011;30951;43.994;26.260;2023-12-20T01:49:19;88.85;;;26.63;;
45208;SDS011;30951;43.994;26.260;2023-12-20T01:51:45;71.03;;;23.13;;
45208;SDS011;30951;43.994;26.260;2023-12-20T01:54:14;53.80;;;20.15;;
45208;SDS011;30951;43.994;26.260;2023-12-20T01:56:40;54.10;;;20.05;;
45208;SDS011;30951;43.994;26.260;2023-12-20T01:59:06;32.20;;;15.40;;
45208;SDS011;30951;43.994;26.260;2023-12-20T02:01:33;30.40;;;14.00;;
45208;SDS011;30951;43.994;26.260;2023-12-20T02:03:58;24.05;;;13.75;;
45208;SDS011;30951;43.994;26.260;2023-12-20T02:06:24;113.88;;;38.53;;
45208;SDS011;30951;43.994;26.260;2023-12-20T02:08:54;65.88;;;25.55;;
45208;SDS011;30951;43.994;26.260;2023-12-20T02:11:20;87.78;;;30.90;;
45208;SDS011;30951;43.994;26.260;2023-12-20T02:13:46;116.50;;;34.03;;
45208;SDS011;30951;43.994;26.260;2023-12-20T02:16:12;49.60;;;21.02;;
45208;SDS011;30951;43.994;26.260;2023-12-20T02:18:37;213.43;;;32.22;;
45208;SDS011;30951;43.994;26.260;2023-12-20T02:21:04;52.72;;;22.88;;
45208;SDS011;30951;43.994;26.260;2023-12-20T02:23:30;370.27;;;36.05;;
45208;SDS011;30951;43.994;26.260;2023-12-20T02:25:56;588.38;;;45.92;;
45208;SDS011;30951;43.994;26.260;2023-12-20T02:28:21;643.97;;;52.65;;
45208;SDS011;30951;43.994;26.260;2023-12-20T02:30:48;641.72;;;50.08;;
45208;SDS011;30951;43.994;26.260;2023-12-20T02:33:14;399.83;;;38.80;;
45208;SDS011;30951;43.994;26.260;2023-12-20T02:35:41;286.88;;;35.38;;
45208;SDS011;30951;43.994;26.260;2023-12-20T02:38:07;287.90;;;35.85;;
45208;SDS011;30951;43.994;26.260;2023-12-20T02:40:33;134.93;;;33.40;;
45208;SDS011;30951;43.994;26.260;2023-12-20T02:42:58;435.95;;;47.17;;
45208;SDS011;30951;43.994;26.260;2023-12-20T02:45:23;230.38;;;38.65;;
45208;SDS011;30951;43.994;26.260;2023-12-20T02:47:49;48.95;;;25.58;;
45208;SDS011;30951;43.994;26.260;2023-12-20T02:50:14;218.15;;;38.13;;
45208;SDS011;30951;43.994;26.260;2023-12-20T02:52:40;385.63;;;39.92;;
45208;SDS011;30951;43.994;26.260;2023-12-20T02:55:05;191.15;;;29.33;;
45208;SDS011;30951;43.994;26.260;2023-12-20T02:57:31;41.90;;;22.45;;
45208;SDS011;30951;43.994;26.260;2023-12-20T02:59:58;39.67;;;20.50;;
45208;SDS011;30951;43.994;26.260;2023-12-20T03:02:24;38.47;;;20.25;;
45208;SDS011;30951;43.994;26.260;2023-12-20T03:04:49;36.90;;;19.10;;
45208;SDS011;30951;43.994;26.260;2023-12-20T03:07:15;32.28;;;17.77;;
45208;SDS011;30951;43.994;26.260;2023-12-20T03:09:41;33.80;;;18.40;;
45208;SDS011;30951;43.994;26.260;2023-12-20T03:12:07;36.08;;;19.27;;
45208;SDS011;30951;43.994;26.260;2023-12-20T03:14:32;35.08;;;18.80;;
45208;SDS011;30951;43.994;26.260;2023-12-20T03:16:58;39.53;;;20.98;;
45208;SDS011;30951;43.994;26.260;2023-12-20T03:19:24;42.75;;;21.23;;
45208;SDS011;30951;43.994;26.260;2023-12-20T03:21:49;47.88;;;22.77;;
45208;SDS011;30951;43.994;26.260;2023-12-20T03:24:15;43.13;;;22.02;;
45208;SDS011;30951;43.994;26.260;2023-12-20T03:26:40;51.40;;;24.20;;
45208;SDS011;30951;43.994;26.260;2023-12-20T03:29:06;40.90;;;20.80;;
45208;SDS011;30951;43.994;26.260;2023-12-20T03:31:31;41.13;;;22.35;;
45208;SDS011;30951;43.994;26.260;2023-12-20T03:33:57;35.83;;;19.80;;
45208;SDS011;30951;43.994;26.260;2023-12-20T03:36:23;35.17;;;19.50;;
45208;SDS011;30951;43.994;26.260;2023-12-20T03:38:49;36.70;;;19.88;;
45208;SDS011;30951;43.994;26.260;2023-12-20T03:41:14;37.00;;;18.15;;
45208;SDS011;30951;43.994;26.260;2023-12-20T03:43:40;32.88;;;17.20;;
45208;SDS011;30951;43.994;26.260;2023-12-20T03:46:07;33.40;;;18.83;;
45208;SDS011;30951;43.994;26.260;2023-12-20T03:48:33;35.45;;;18.70;;
45208;SDS011;30951;43.994;26.260;2023-12-20T03:50:59;28.85;;;15.93;;
45208;SDS011;30951;43.994;26.260;2023-12-20T03:53:24;28.00;;;15.27;;
45208;SDS011;30951;43.994;26.260;2023-12-20T03:55:50;26.83;;;13.77;;
45208;SDS011;30951;43.994;26.260;2023-12-20T03:58:16;28.85;;;13.77;;
45208;SDS011;30951;43.994;26.260;2023-12-20T04:00:43;28.83;;;13.32;;
45208;SDS011;30951;43.994;26.260;2023-12-20T04:03:09;25.38;;;13.18;;
45208;SDS011;30951;43.994;26.260;2023-12-20T04:05:37;29.95;;;14.30;;
45208;SDS011;30951;43.994;26.260;2023-12-20T04:08:03;26.38;;;14.55;;
45208;SDS011;30951;43.994;26.260;2023-12-20T04:10:29;30.73;;;14.68;;
45208;SDS011;30951;43.994;26.260;2023-12-20T04:12:54;37.38;;;16.60;;
45208;SDS011;30951;43.994;26.260;2023-12-20T04:15:20;32.88;;;17.20;;
45208;SDS011;30951;43.994;26.260;2023-12-20T04:17:45;31.48;;;17.25;;
45208;SDS011;30951;43.994;26.260;2023-12-20T04:20:11;27.95;;;14.98;;
45208;SDS011;30951;43.994;26.260;2023-12-20T04:22:37;29.50;;;13.90;;
45208;SDS011;30951;43.994;26.260;2023-12-20T04:25:03;30.85;;;14.40;;
45208;SDS011;30951;43.994;26.260;2023-12-20T04:27:28;27.65;;;13.68;;
45208;SDS011;30951;43.994;26.260;2023-12-20T04:29:54;23.80;;;13.65;;
45208;SDS011;30951;43.994;26.260;2023-12-20T04:32:20;26.63;;;14.23;;
45208;SDS011;30951;43.994;26.260;2023-12-20T04:34:45;27.95;;;13.80;;
45208;SDS011;30951;43.994;26.260;2023-12-20T04:37:11;28.45;;;14.27;;
45208;SDS011;30951;43.994;26.260;2023-12-20T04:39:37;22.55;;;13.60;;
45208;SDS011;30951;43.994;26.260;2023-12-20T04:42:03;27.27;;;15.25;;
45208;SDS011;30951;43.994;26.260;2023-12-20T04:44:28;97.32;;;45.75;;
45208;SDS011;30951;43.994;26.260;2023-12-20T04:46:54;67.82;;;31.55;;
45208;SDS011;30951;43.994;26.260;2023-12-20T04:49:21;79.72;;;37.42;;
45208;SDS011;30951;43.994;26.260;2023-12-20T04:51:47;69.70;;;32.50;;
45208;SDS011;30951;43.994;26.260;2023-12-20T04:54:12;82.90;;;36.90;;
45208;SDS011;30951;43.994;26.260;2023-12-20T04:56:38;79.85;;;35.80;;
45208;SDS011;30951;43.994;26.260;2023-12-20T04:59:04;43.13;;;22.30;;
45208;SDS011;30951;43.994;26.260;2023-12-20T05:01:31;36.13;;;18.17;;
45208;SDS011;30951;43.994;26.260;2023-12-20T05:03:56;41.42;;;19.63;;
45208;SDS011;30951;43.994;26.260;2023-12-20T05:06:22;33.97;;;17.52;;
45208;SDS011;30951;43.994;26.260;2023-12-20T05:08:47;38.67;;;20.52;;
45208;SDS011;30951;43.994;26.260;2023-12-20T05:11:13;40.10;;;21.92;;
45208;SDS011;30951;43.994;26.260;2023-12-20T05:13:40;45.05;;;21.23;;
45208;SDS011;30951;43.994;26.260;2023-12-20T05:16:06;38.33;;;20.00;;
45208;SDS011;30951;43.994;26.260;2023-12-20T05:18:32;39.20;;;21.30;;
45208;SDS011;30951;43.994;26.260;2023-12-20T05:20:57;42.08;;;21.38;;
45208;SDS011;30951;43.994;26.260;2023-12-20T05:23:23;34.83;;;18.90;;
45208;SDS011;30951;43.994;26.260;2023-12-20T05:25:49;39.75;;;19.63;;
45208;SDS011;30951;43.994;26.260;2023-12-20T05:28:19;41.08;;;20.05;;
45208;SDS011;30951;43.994;26.260;2023-12-20T05:30:44;43.50;;;20.10;;
45208;SDS011;30951;43.994;26.260;2023-12-20T05:33:09;36.47;;;20.05;;
45208;SDS011;30951;43.994;26.260;2023-12-20T05:35:36;40.22;;;21.50;;
45208;SDS011;30951;43.994;26.260;2023-12-20T05:38:02;55.05;;;27.73;;
45208;SDS011;30951;43.994;26.260;2023-12-20T05:40:27;37.67;;;20.92;;
45208;SDS011;30951;43.994;26.260;2023-12-20T05:42:53;46.35;;;20.40;;
45208;SDS011;30951;43.994;26.260;2023-12-20T05:45:19;39.35;;;21.10;;
45208;SDS011;30951;43.994;26.260;2023-12-20T05:47:45;40.42;;;21.77;;
45208;SDS011;30951;43.994;26.260;2023-12-20T05:50:11;42.80;;;22.25;;
45208;SDS011;30951;43.994;26.260;2023-12-20T05:52:36;51.45;;;21.90;;
45208;SDS011;30951;43.994;26.260;2023-12-20T05:55:04;42.28;;;20.02;;
45208;SDS011;30951;43.994;26.260;2023-12-20T05:57:30;33.55;;;19.38;;
45208;SDS011;30951;43.994;26.260;2023-12-20T05:59:55;62.40;;;29.55;;
45208;SDS011;30951;43.994;26.260;2023-12-20T06:02:21;48.08;;;24.35;;
45208;SDS011;30951;43.994;26.260;2023-12-20T06:04:46;40.08;;;20.40;;
45208;SDS011;30951;43.994;26.260;2023-12-20T06:07:12;38.50;;;19.10;;
45208;SDS011;30951;43.994;26.260;2023-12-20T06:09:38;39.17;;;18.65;;
45208;SDS011;30951;43.994;26.260;2023-12-20T06:12:04;45.83;;;23.35;;
45208;SDS011;30951;43.994;26.260;2023-12-20T06:14:30;69.10;;;29.58;;
45208;SDS011;30951;43.994;26.260;2023-12-20T06:16:57;53.50;;;27.05;;
45208;SDS011;30951;43.994;26.260;2023-12-20T06:19:22;53.83;;;27.40;;
45208;SDS011;30951;43.994;26.260;2023-12-20T06:21:48;51.47;;;27.77;;
45208;SDS011;30951;43.994;26.260;2023-12-20T06:24:14;52.33;;;24.10;;
45208;SDS011;30951;43.994;26.260;2023-12-20T06:26:39;45.92;;;22.65;;
45208;SDS011;30951;43.994;26.260;2023-12-20T06:29:05;53.47;;;23.35;;
45208;SDS011;30951;43.994;26.260;2023-12-20T06:31:30;48.58;;;21.75;;
45208;SDS011;30951;43.994;26.260;2023-12-20T06:33:57;44.63;;;20.75;;
45208;SDS011;30951;43.994;26.260;2023-12-20T06:36:25;37.88;;;19.15;;
45208;SDS011;30951;43.994;26.260;2023-12-20T06:38:52;48.30;;;18.83;;
45208;SDS011;30951;43.994;26.260;2023-12-20T06:41:17;48.83;;;20.55;;
45208;SDS011;30951;43.994;26.260;2023-12-20T06:43:43;45.30;;;18.70;;
45208;SDS011;30951;43.994;26.260;2023-12-20T06:46:08;32.40;;;16.23;;
45208;SDS011;30951;43.994;26.260;2023-12-20T06:48:34;31.15;;;15.77;;
45208;SDS011;30951;43.994;26.260;2023-12-20T06:51:01;43.60;;;21.17;;
45208;SDS011;30951;43.994;26.260;2023-12-20T06:53:27;36.20;;;18.92;;
45208;SDS011;30951;43.994;26.260;2023-12-20T06:55:52;39.60;;;20.98;;
45208;SDS011;30951;43.994;26.260;2023-12-20T06:58:18;44.63;;;24.13;;
45208;SDS011;30951;43.994;26.260;2023-12-20T07:00:44;40.22;;;21.80;;
45208;SDS011;30951;43.994;26.260;2023-12-20T07:03:09;43.95;;;25.05;;
45208;SDS011;30951;43.994;26.260;2023-12-20T07:05:36;57.53;;;29.13;;
45208;SDS011;30951;43.994;26.260;2023-12-20T07:08:02;69.15;;;34.70;;
45208;SDS011;30951;43.994;26.260;2023-12-20T07:10:27;56.22;;;31.98;;
45208;SDS011;30951;43.994;26.260;2023-12-20T07:12:53;63.78;;;30.30;;
45208;SDS011;30951;43.994;26.260;2023-12-20T07:15:20;58.53;;;29.40;;
45208;SDS011;30951;43.994;26.260;2023-12-20T07:17:46;39.42;;;21.52;;
45208;SDS011;30951;43.994;26.260;2023-12-20T07:20:12;40.45;;;20.95;;
45208;SDS011;30951;43.994;26.260;2023-12-20T07:22:37;41.25;;;22.85;;
45208;SDS011;30951;43.994;26.260;2023-12-20T07:25:03;43.75;;;21.95;;
45208;SDS011;30951;43.994;26.260;2023-12-20T07:27:28;48.95;;;24.30;;
45208;SDS011;30951;43.994;26.260;2023-12-20T07:29:54;45.17;;;25.98;;
45208;SDS011;30951;43.994;26.260;2023-12-20T07:32:19;51.20;;;31.70;;
45208;SDS011;30951;43.994;26.260;2023-12-20T07:34:45;60.90;;;31.75;;
45208;SDS011;30951;43.994;26.260;2023-12-20T07:37:11;53.58;;;29.02;;
45208;SDS011;30951;43.994;26.260;2023-12-20T07:39:40;46.75;;;26.35;;
45208;SDS011;30951;43.994;26.260;2023-12-20T07:42:06;56.47;;;30.23;;
45208;SDS011;30951;43.994;26.260;2023-12-20T07:44:32;56.47;;;31.65;;
45208;SDS011;30951;43.994;26.260;2023-12-20T07:46:58;67.10;;;41.20;;
45208;SDS011;30951;43.994;26.260;2023-12-20T07:49:23;43.92;;;24.25;;
45208;SDS011;30951;43.994;26.260;2023-12-20T07:51:49;43.78;;;27.23;;
45208;SDS011;30951;43.994;26.260;2023-12-20T07:54:15;38.47;;;25.08;;
45208;SDS011;30951;43.994;26.260;2023-12-20T07:56:41;51.50;;;32.42;;
45208;SDS011;30951;43.994;26.260;2023-12-20T07:59:06;33.13;;;23.27;;
45208;SDS011;30951;43.994;26.260;2023-12-20T08:01:32;34.58;;;21.65;;
45208;SDS011;30951;43.994;26.260;2023-12-20T08:03:57;31.52;;;20.35;;
45208;SDS011;30951;43.994;26.260;2023-12-20T08:06:23;31.65;;;18.80;;
45208;SDS011;30951;43.994;26.260;2023-12-20T08:08:48;36.38;;;23.80;;
45208;SDS011;30951;43.994;26.260;2023-12-20T08:11:14;40.78;;;24.63;;
45208;SDS011;30951;43.994;26.260;2023-12-20T08:13:40;46.08;;;26.95;;
45208;SDS011;30951;43.994;26.260;2023-12-20T08:16:05;46.47;;;26.52;;
45208;SDS011;30951;43.994;26.260;2023-12-20T08:18:31;51.38;;;31.70;;
45208;SDS011;30951;43.994;26.260;2023-12-20T08:20:57;50.97;;;29.23;;
45208;SDS011;30951;43.994;26.260;2023-12-20T08:23:22;42.63;;;25.25;;
45208;SDS011;30951;43.994;26.260;2023-12-20T08:25:48;39.17;;;22.83;;
45208;SDS011;30951;43.994;26.260;2023-12-20T08:28:14;31.88;;;20.10;;
45208;SDS011;30951;43.994;26.260;2023-12-20T08:30:40;36.03;;;20.95;;
45208;SDS011;30951;43.994;26.260;2023-12-20T08:33:06;33.78;;;21.50;;
45208;SDS011;30951;43.994;26.260;2023-12-20T08:35:36;46.88;;;19.55;;
45208;SDS011;30951;43.994;26.260;2023-12-20T08:38:02;34.35;;;18.55;;
45208;SDS011;30951;43.994;26.260;2023-12-20T08:40:29;32.33;;;17.50;;
45208;SDS011;30951;43.994;26.260;2023-12-20T08:42:55;30.45;;;17.65;;
45208;SDS011;30951;43.994;26.260;2023-12-20T08:45:20;27.10;;;18.00;;
45208;SDS011;30951;43.994;26.260;2023-12-20T08:47:46;26.25;;;16.88;;
45208;SDS011;30951;43.994;26.260;2023-12-20T08:50:11;28.75;;;17.15;;
45208;SDS011;30951;43.994;26.260;2023-12-20T08:52:37;26.17;;;17.33;;
45208;SDS011;30951;43.994;26.260;2023-12-20T08:55:03;22.33;;;14.05;;
45208;SDS011;30951;43.994;26.260;2023-12-20T08:57:28;26.25;;;13.00;;
45208;SDS011;30951;43.994;26.260;2023-12-20T08:59:54;22.95;;;12.95;;
45208;SDS011;30951;43.994;26.260;2023-12-20T09:02:20;20.58;;;12.85;;
45208;SDS011;30951;43.994;26.260;2023-12-20T09:04:45;18.60;;;12.32;;
45208;SDS011;30951;43.994;26.260;2023-12-20T09:07:23;27.45;;;16.90;;
45208;SDS011;30951;43.994;26.260;2023-12-20T09:09:49;27.10;;;17.15;;
45208;SDS011;30951;43.994;26.260;2023-12-20T09:12:16;25.13;;;15.13;;
45208;SDS011;30951;43.994;26.260;2023-12-20T09:14:43;24.25;;;16.20;;
45208;SDS011;30951;43.994;26.260;2023-12-20T09:17:09;26.33;;;16.25;;
45208;SDS011;30951;43.994;26.260;2023-12-20T09:19:36;25.83;;;16.52;;
45208;SDS011;30951;43.994;26.260;2023-12-20T09:22:02;19.92;;;12.32;;
45208;SDS011;30951;43.994;26.260;2023-12-20T09:24:27;18.85;;;10.93;;
45208;SDS011;30951;43.994;26.260;2023-12-20T09:26:53;26.60;;;12.27;;
45208;SDS011;30951;43.994;26.260;2023-12-20T09:29:18;31.48;;;12.77;;
45208;SDS011;30951;43.994;26.260;2023-12-20T09:31:44;29.67;;;12.45;;
45208;SDS011;30951;43.994;26.260;2023-12-20T09:34:11;33.28;;;14.25;;
45208;SDS011;30951;43.994;26.260;2023-12-20T09:36:37;31.90;;;12.70;;
45208;SDS011;30951;43.994;26.260;2023-12-20T09:39:05;28.63;;;13.73;;
45208;SDS011;30951;43.994;26.260;2023-12-20T09:41:31;23.38;;;12.25;;
45208;SDS011;30951;43.994;26.260;2023-12-20T09:44:02;28.77;;;13.15;;
45208;SDS011;30951;43.994;26.260;2023-12-20T09:46:28;29.15;;;13.82;;
45208;SDS011;30951;43.994;26.260;2023-12-20T09:48:55;31.17;;;13.93;;
45208;SDS011;30951;43.994;26.260;2023-12-20T09:51:20;29.15;;;16.50;;
45208;SDS011;30951;43.994;26.260;2023-12-20T09:53:46;26.27;;;18.80;;
45208;SDS011;30951;43.994;26.260;2023-12-20T09:56:12;21.95;;;12.77;;
45208;SDS011;30951;43.994;26.260;2023-12-20T09:58:38;24.17;;;13.73;;
45208;SDS011;30951;43.994;26.260;2023-12-20T10:01:04;22.60;;;13.23;;
45208;SDS011;30951;43.994;26.260;2023-12-20T10:03:30;22.38;;;13.13;;
45208;SDS011;30951;43.994;26.260;2023-12-20T10:05:56;21.55;;;13.45;;
45208;SDS011;30951;43.994;26.260;2023-12-20T10:08:25;21.67;;;13.45;;
45208;SDS011;30951;43.994;26.260;2023-12-20T10:10:51;21.35;;;13.52;;
45208;SDS011;30951;43.994;26.260;2023-12-20T10:13:17;21.40;;;12.90;;
45208;SDS011;30951;43.994;26.260;2023-12-20T10:15:42;20.17;;;13.20;;
45208;SDS011;30951;43.994;26.260;2023-12-20T10:18:08;19.40;;;12.90;;
45208;SDS011;30951;43.994;26.260;2023-12-20T10:20:34;27.80;;;20.60;;
45208;SDS011;30951;43.994;26.260;2023-12-20T10:23:00;21.35;;;12.68;;
45208;SDS011;30951;43.994;26.260;2023-12-20T10:25:26;19.30;;;11.25;;
45208;SDS011;30951;43.994;26.260;2023-12-20T10:30:37;16.30;;;11.10;;
45208;SDS011;30951;43.994;26.260;2023-12-20T10:33:03;18.55;;;10.30;;
45208;SDS011;30951;43.994;26.260;2023-12-20T10:35:30;19.98;;;12.18;;
45208;SDS011;30951;43.994;26.260;2023-12-20T10:37:56;17.42;;;12.43;;
45208;SDS011;30951;43.994;26.260;2023-12-20T10:40:22;25.45;;;13.10;;
45208;SDS011;30951;43.994;26.260;2023-12-20T10:42:48;27.35;;;13.95;;
45208;SDS011;30951;43.994;26.260;2023-12-20T10:45:15;26.65;;;13.25;;
45208;SDS011;30951;43.994;26.260;2023-12-20T10:47:43;30.60;;;17.48;;
45208;SDS011;30951;43.994;26.260;2023-12-20T10:50:11;23.05;;;14.32;;
45208;SDS011;30951;43.994;26.260;2023-12-20T10:52:37;14.80;;;7.97;;
45208;SDS011;30951;43.994;26.260;2023-12-20T10:55:03;11.95;;;8.48;;
45208;SDS011;30951;43.994;26.260;2023-12-20T10:57:29;17.55;;;10.38;;
45208;SDS011;30951;43.994;26.260;2023-12-20T10:59:55;17.25;;;11.52;;
45208;SDS011;30951;43.994;26.260;2023-12-20T11:02:21;17.83;;;9.95;;
45208;SDS011;30951;43.994;26.260;2023-12-20T11:04:50;17.33;;;12.18;;
45208;SDS011;30951;43.994;26.260;2023-12-20T11:07:37;13.83;;;10.20;;
45208;SDS011;30951;43.994;26.260;2023-12-20T11:15:19;26.88;;;14.07;;
45208;SDS011;30951;43.994;26.260;2023-12-20T11:17:45;21.77;;;13.20;;
45208;SDS011;30951;43.994;26.260;2023-12-20T11:20:13;22.83;;;13.82;;
45208;SDS011;30951;43.994;26.260;2023-12-20T11:22:39;17.70;;;11.32;;
45208;SDS011;30951;43.994;26.260;2023-12-20T11:25:17;14.48;;;10.00;;
45208;SDS011;30951;43.994;26.260;2023-12-20T11:27:42;46.63;;;27.42;;
45208;SDS011;30951;43.994;26.260;2023-12-20T11:30:08;19.48;;;10.00;;
45208;SDS011;30951;43.994;26.260;2023-12-20T11:32:35;16.85;;;9.20;;
45208;SDS011;30951;43.994;26.260;2023-12-20T11:37:36;12.23;;;8.32;;
45208;SDS011;30951;43.994;26.260;2023-12-20T11:40:04;34.15;;;20.08;;
45208;SDS011;30951;43.994;26.260;2023-12-20T11:42:37;23.88;;;15.52;;
45208;SDS011;30951;43.994;26.260;2023-12-20T11:45:04;7.85;;;5.85;;
45208;SDS011;30951;43.994;26.260;2023-12-20T11:47:30;11.05;;;6.65;;
45208;SDS011;30951;43.994;26.260;2023-12-20T11:49:56;10.52;;;6.55;;
45208;SDS011;30951;43.994;26.260;2023-12-20T11:52:22;69.90;;;31.02;;
45208;SDS011;30951;43.994;26.260;2023-12-20T11:54:47;32.95;;;14.77;;
45208;SDS011;30951;43.994;26.260;2023-12-20T11:57:13;11.82;;;5.25;;
45208;SDS011;30951;43.994;26.260;2023-12-20T11:59:39;25.75;;;13.65;;
45208;SDS011;30951;43.994;26.260;2023-12-20T12:02:05;35.45;;;21.55;;
45208;SDS011;30951;43.994;26.260;2023-12-20T12:04:30;17.25;;;10.45;;
45208;SDS011;30951;43.994;26.260;2023-12-20T12:06:56;14.90;;;9.48;;
45208;SDS011;30951;43.994;26.260;2023-12-20T12:09:21;22.70;;;15.57;;
45208;SDS011;30951;43.994;26.260;2023-12-20T12:11:47;29.08;;;22.00;;
45208;SDS011;30951;43.994;26.260;2023-12-20T12:14:13;15.80;;;9.77;;
45208;SDS011;30951;43.994;26.260;2023-12-20T12:16:38;14.15;;;10.20;;
45208;SDS011;30951;43.994;26.260;2023-12-20T12:19:04;16.70;;;11.07;;
45208;SDS011;30951;43.994;26.260;2023-12-20T12:21:30;15.68;;;10.02;;
45208;SDS011;30951;43.994;26.260;2023-12-20T12:24:05;16.88;;;10.75;;
45208;SDS011;30951;43.994;26.260;2023-12-20T12:26:32;18.58;;;11.07;;
45208;SDS011;30951;43.994;26.260;2023-12-20T12:28:57;24.13;;;13.40;;
45208;SDS011;30951;43.994;26.260;2023-12-20T12:31:22;21.73;;;13.23;;
45208;SDS011;30951;43.994;26.260;2023-12-20T12:33:50;25.98;;;15.32;;
45208;SDS011;30951;43.994;26.260;2023-12-20T12:36:16;23.27;;;14.20;;
45208;SDS011;30951;43.994;26.260;2023-12-20T12:38:42;25.73;;;14.80;;
45208;SDS011;30951;43.994;26.260;2023-12-20T12:41:08;24.30;;;14.45;;
45208;SDS011;30951;43.994;26.260;2023-12-20T12:43:35;25.65;;;14.25;;
45208;SDS011;30951;43.994;26.260;2023-12-20T12:46:00;37.17;;;25.38;;
45208;SDS011;30951;43.994;26.260;2023-12-20T12:48:26;32.58;;;18.30;;
45208;SDS011;30951;43.994;26.260;2023-12-20T12:50:53;68.18;;;43.38;;
45208;SDS011;30951;43.994;26.260;2023-12-20T12:53:19;27.90;;;18.45;;
45208;SDS011;30951;43.994;26.260;2023-12-20T12:55:45;33.28;;;17.55;;
45208;SDS011;30951;43.994;26.260;2023-12-20T12:58:11;29.55;;;16.40;;
45208;SDS011;30951;43.994;26.260;2023-12-20T13:00:36;64.40;;;30.95;;
45208;SDS011;30951;43.994;26.260;2023-12-20T13:03:02;51.35;;;29.67;;
45208;SDS011;30951;43.994;26.260;2023-12-20T13:05:27;102.53;;;63.67;;
45208;SDS011;30951;43.994;26.260;2023-12-20T13:07:53;51.40;;;24.95;;
45208;SDS011;30951;43.994;26.260;2023-12-20T13:10:19;33.53;;;17.17;;
45208;SDS011;30951;43.994;26.260;2023-12-20T13:12:44;50.28;;;25.95;;
45208;SDS011;30951;43.994;26.260;2023-12-20T13:15:11;30.27;;;17.42;;
45208;SDS011;30951;43.994;26.260;2023-12-20T13:17:37;28.08;;;16.30;;
45208;SDS011;30951;43.994;26.260;2023-12-20T13:20:03;28.55;;;17.70;;
45208;SDS011;30951;43.994;26.260;2023-12-20T13:22:29;32.92;;;18.25;;
45208;SDS011;30951;43.994;26.260;2023-12-20T13:24:55;92.93;;;57.95;;
45208;SDS011;30951;43.994;26.260;2023-12-20T13:27:20;33.00;;;22.05;;
45208;SDS011;30951;43.994;26.260;2023-12-20T13:29:45;47.85;;;29.08;;
45208;SDS011;30951;43.994;26.260;2023-12-20T13:32:11;23.17;;;13.13;;
45208;SDS011;30951;43.994;26.260;2023-12-20T13:34:37;21.77;;;12.70;;
45208;SDS011;30951;43.994;26.260;2023-12-20T13:37:03;18.35;;;11.02;;
45208;SDS011;30951;43.994;26.260;2023-12-20T13:39:29;18.38;;;10.77;;
45208;SDS011;30951;43.994;26.260;2023-12-20T13:41:56;17.33;;;11.57;;
45208;SDS011;30951;43.994;26.260;2023-12-20T13:44:22;21.05;;;11.85;;
45208;SDS011;30951;43.994;26.260;2023-12-20T13:46:47;26.60;;;17.45;;
45208;SDS011;30951;43.994;26.260;2023-12-20T13:49:15;18.98;;;13.90;;
45208;SDS011;30951;43.994;26.260;2023-12-20T13:51:40;24.85;;;14.57;;
45208;SDS011;30951;43.994;26.260;2023-12-20T13:54:06;24.20;;;14.68;;
45208;SDS011;30951;43.994;26.260;2023-12-20T13:56:31;25.52;;;15.30;;
45208;SDS011;30951;43.994;26.260;2023-12-20T13:58:58;29.05;;;17.05;;
45208;SDS011;30951;43.994;26.260;2023-12-20T14:01:24;30.42;;;17.98;;
45208;SDS011;30951;43.994;26.260;2023-12-20T14:03:51;30.02;;;17.35;;
45208;SDS011;30951;43.994;26.260;2023-12-20T14:06:18;31.20;;;18.45;;
45208;SDS011;30951;43.994;26.260;2023-12-20T14:08:43;39.00;;;19.25;;
45208;SDS011;30951;43.994;26.260;2023-12-20T14:11:09;33.05;;;19.90;;
45208;SDS011;30951;43.994;26.260;2023-12-20T14:13:35;29.55;;;17.42;;